sensor_id;sensor_type;location;lat;lon;timestamp;temperature;humidity
20744;DHT22;56303;52.160;-0.428;2023-01-16T00:01:55;5.40;99.90
20744;DHT22;56303;52.160;-0.428;2023-01-16T00:04:22;5.40;99.90
20744;DHT22;56303;52.160;-0.428;2023-01-16T00:06:49;5.50;99.90
20744;DHT22;56303;52.160;-0.428;2023-01-16T00:09:16;5.50;99.90
20744;DHT22;56303;52.160;-0.428;2023-01-16T00:11:44;5.50;99.90
20744;DHT22;56303;52.160;-0.428;2023-01-16T00:14:11;5.50;99.90
20744;DHT22;56303;52.160;-0.428;2023-01-16T00:16:38;5.60;99.90
20744;DHT22;56303;52.160;-0.428;2023-01-16T00:19:05;5.40;99.90
20744;DHT22;56303;52.160;-0.428;2023-01-16T00:21:32;4.80;99.90
20744;DHT22;56303;52.160;-0.428;2023-01-16T00:23:59;4.70;99.90
20744;DHT22;56303;52.160;-0.428;2023-01-16T00:26:27;4.70;99.90
20744;DHT22;56303;52.160;-0.428;2023-01-16T00:28:55;4.80;99.90
20744;DHT22;56303;52.160;-0.428;2023-01-16T00:31:21;4.90;99.90
20744;DHT22;56303;52.160;-0.428;2023-01-16T00:33:54;4.90;99.90
20744;DHT22;56303;52.160;-0.428;2023-01-16T00:36:21;4.90;99.90
20744;DHT22;56303;52.160;-0.428;2023-01-16T00:38:48;5.10;99.90
20744;DHT22;56303;52.160;-0.428;2023-01-16T00:41:15;5.50;99.90
20744;DHT22;56303;52.160;-0.428;2023-01-16T00:43:42;5.50;99.90
20744;DHT22;56303;52.160;-0.428;2023-01-16T00:46:09;5.30;99.90
20744;DHT22;56303;52.160;-0.428;2023-01-16T00:48:36;5.20;99.90
20744;DHT22;56303;52.160;-0.428;2023-01-16T00:51:04;5.20;99.90
20744;DHT22;56303;52.160;-0.428;2023-01-16T00:53:30;5.10;99.90
20744;DHT22;56303;52.160;-0.428;2023-01-16T00:55:57;5.20;99.90
20744;DHT22;56303;52.160;-0.428;2023-01-16T00:58:24;5.10;99.90
20744;DHT22;56303;52.160;-0.428;2023-01-16T01:00:51;5.10;99.90
20744;DHT22;56303;52.160;-0.428;2023-01-16T01:03:18;5.00;99.90
20744;DHT22;56303;52.160;-0.428;2023-01-16T01:05:45;4.80;99.90
20744;DHT22;56303;52.160;-0.428;2023-01-16T01:08:12;5.10;99.90
20744;DHT22;56303;52.160;-0.428;2023-01-16T01:10:39;5.00;99.90
20744;DHT22;56303;52.160;-0.428;2023-01-16T01:13:06;4.90;99.90
20744;DHT22;56303;52.160;-0.428;2023-01-16T01:15:33;4.60;99.90
20744;DHT22;56303;52.160;-0.428;2023-01-16T01:18:01;4.60;99.90
20744;DHT22;56303;52.160;-0.428;2023-01-16T01:20:27;5.10;99.90
20744;DHT22;56303;52.160;-0.428;2023-01-16T01:22:54;4.90;99.90
20744;DHT22;56303;52.160;-0.428;2023-01-16T01:25:22;4.70;99.90
20744;DHT22;56303;52.160;-0.428;2023-01-16T01:27:49;4.80;99.90
20744;DHT22;56303;52.160;-0.428;2023-01-16T01:30:16;4.80;99.90
20744;DHT22;56303;52.160;-0.428;2023-01-16T01:32:42;4.70;99.90
20744;DHT22;56303;52.160;-0.428;2023-01-16T01:35:09;4.90;99.90
20744;DHT22;56303;52.160;-0.428;2023-01-16T01:37:36;4.70;99.90
20744;DHT22;56303;52.160;-0.428;2023-01-16T01:40:03;4.60;99.90
20744;DHT22;56303;52.160;-0.428;2023-01-16T01:42:39;4.70;99.90
20744;DHT22;56303;52.160;-0.428;2023-01-16T01:45:24;4.80;99.90
20744;DHT22;56303;52.160;-0.428;2023-01-16T01:48:18;4.50;99.90
20744;DHT22;56303;52.160;-0.428;2023-01-16T01:50:54;4.70;99.90
20744;DHT22;56303;52.160;-0.428;2023-01-16T01:53:35;4.70;99.90
20744;DHT22;56303;52.160;-0.428;2023-01-16T01:56:15;4.90;99.90
20744;DHT22;56303;52.160;-0.428;2023-01-16T01:58:46;4.80;99.90
20744;DHT22;56303;52.160;-0.428;2023-01-16T02:01:15;4.70;99.90
20744;DHT22;56303;52.160;-0.428;2023-01-16T02:03:47;4.80;99.90
20744;DHT22;56303;52.160;-0.428;2023-01-16T02:06:20;4.70;99.90
20744;DHT22;56303;52.160;-0.428;2023-01-16T02:08:50;4.60;99.90
20744;DHT22;56303;52.160;-0.428;2023-01-16T02:11:25;4.80;99.90
20744;DHT22;56303;52.160;-0.428;2023-01-16T02:13:59;4.40;99.90
20744;DHT22;56303;52.160;-0.428;2023-01-16T02:16:26;4.40;99.90
20744;DHT22;56303;52.160;-0.428;2023-01-16T02:19:22;4.40;99.90
20744;DHT22;56303;52.160;-0.428;2023-01-16T02:22:18;4.20;99.90
20744;DHT22;56303;52.160;-0.428;2023-01-16T02:33:38;4.40;99.90
20744;DHT22;56303;52.160;-0.428;2023-01-16T02:49:53;4.90;99.90
20744;DHT22;56303;52.160;-0.428;2023-01-16T02:52:45;5.00;99.90
20744;DHT22;56303;52.160;-0.428;2023-01-16T02:57:47;5.40;99.90
20744;DHT22;56303;52.160;-0.428;2023-01-16T03:00:15;5.30;99.90
20744;DHT22;56303;52.160;-0.428;2023-01-16T03:02:46;4.50;99.90
20744;DHT22;56303;52.160;-0.428;2023-01-16T03:05:13;4.40;99.90
20744;DHT22;56303;52.160;-0.428;2023-01-16T03:16:08;4.00;99.90
20744;DHT22;56303;52.160;-0.428;2023-01-16T03:26:47;3.30;99.90
20744;DHT22;56303;52.160;-0.428;2023-01-16T03:32:07;3.30;99.90
20744;DHT22;56303;52.160;-0.428;2023-01-16T03:34:43;3.00;99.90
20744;DHT22;56303;52.160;-0.428;2023-01-16T03:37:17;3.10;99.90
20744;DHT22;56303;52.160;-0.428;2023-01-16T03:39:50;3.30;99.90
20744;DHT22;56303;52.160;-0.428;2023-01-16T03:42:23;4.10;99.90
20744;DHT22;56303;52.160;-0.428;2023-01-16T03:44:56;3.20;99.90
20744;DHT22;56303;52.160;-0.428;2023-01-16T03:47:29;3.50;99.90
20744;DHT22;56303;52.160;-0.428;2023-01-16T03:50:03;3.50;99.90
20744;DHT22;56303;52.160;-0.428;2023-01-16T03:52:39;3.50;99.90
20744;DHT22;56303;52.160;-0.428;2023-01-16T03:55:27;3.60;99.90
20744;DHT22;56303;52.160;-0.428;2023-01-16T03:58:07;3.50;99.90
20744;DHT22;56303;52.160;-0.428;2023-01-16T04:03:59;3.70;99.90
20744;DHT22;56303;52.160;-0.428;2023-01-16T04:07:09;3.80;99.90
20744;DHT22;56303;52.160;-0.428;2023-01-16T04:09:49;3.50;99.90
20744;DHT22;56303;52.160;-0.428;2023-01-16T04:12:20;3.30;99.90
20744;DHT22;56303;52.160;-0.428;2023-01-16T04:14:52;3.00;99.90
20744;DHT22;56303;52.160;-0.428;2023-01-16T04:17:21;3.20;99.90
20744;DHT22;56303;52.160;-0.428;2023-01-16T04:19:48;3.60;99.90
20744;DHT22;56303;52.160;-0.428;2023-01-16T04:22:23;3.10;99.90
20744;DHT22;56303;52.160;-0.428;2023-01-16T04:24:55;3.00;99.90
20744;DHT22;56303;52.160;-0.428;2023-01-16T04:27:22;2.80;99.90
20744;DHT22;56303;52.160;-0.428;2023-01-16T04:29:49;2.90;99.90
20744;DHT22;56303;52.160;-0.428;2023-01-16T04:32:16;3.10;99.90
20744;DHT22;56303;52.160;-0.428;2023-01-16T04:34:43;3.00;99.90
20744;DHT22;56303;52.160;-0.428;2023-01-16T04:37:12;3.20;99.90
20744;DHT22;56303;52.160;-0.428;2023-01-16T04:39:40;3.50;99.90
20744;DHT22;56303;52.160;-0.428;2023-01-16T04:42:08;3.50;99.90
20744;DHT22;56303;52.160;-0.428;2023-01-16T04:44:35;3.50;99.90
20744;DHT22;56303;52.160;-0.428;2023-01-16T04:47:02;3.70;99.90
20744;DHT22;56303;52.160;-0.428;2023-01-16T04:49:29;3.60;99.90
20744;DHT22;56303;52.160;-0.428;2023-01-16T04:51:56;3.50;99.90
20744;DHT22;56303;52.160;-0.428;2023-01-16T04:54:23;3.60;99.90
20744;DHT22;56303;52.160;-0.428;2023-01-16T04:56:49;3.50;99.90
20744;DHT22;56303;52.160;-0.428;2023-01-16T04:59:17;3.80;99.90
20744;DHT22;56303;52.160;-0.428;2023-01-16T05:01:45;4.00;99.90
20744;DHT22;56303;52.160;-0.428;2023-01-16T05:04:13;3.90;99.90
20744;DHT22;56303;52.160;-0.428;2023-01-16T05:06:42;4.10;99.90
20744;DHT22;56303;52.160;-0.428;2023-01-16T05:09:09;4.10;99.90
20744;DHT22;56303;52.160;-0.428;2023-01-16T05:11:36;4.00;99.90
20744;DHT22;56303;52.160;-0.428;2023-01-16T05:14:03;3.90;99.90
20744;DHT22;56303;52.160;-0.428;2023-01-16T05:16:38;3.70;99.90
20744;DHT22;56303;52.160;-0.428;2023-01-16T05:19:05;3.50;99.90
20744;DHT22;56303;52.160;-0.428;2023-01-16T05:21:32;3.40;99.90
20744;DHT22;56303;52.160;-0.428;2023-01-16T05:23:58;4.00;99.90
20744;DHT22;56303;52.160;-0.428;2023-01-16T05:26:25;3.90;99.90
20744;DHT22;56303;52.160;-0.428;2023-01-16T05:28:52;3.70;99.90
20744;DHT22;56303;52.160;-0.428;2023-01-16T05:31:19;4.50;99.90
20744;DHT22;56303;52.160;-0.428;2023-01-16T05:33:46;3.70;99.90
20744;DHT22;56303;52.160;-0.428;2023-01-16T05:36:13;3.70;99.90
20744;DHT22;56303;52.160;-0.428;2023-01-16T05:38:40;3.90;99.90
20744;DHT22;56303;52.160;-0.428;2023-01-16T05:41:07;3.60;99.90
20744;DHT22;56303;52.160;-0.428;2023-01-16T05:43:35;3.60;99.90
20744;DHT22;56303;52.160;-0.428;2023-01-16T05:46:02;3.60;99.90
20744;DHT22;56303;52.160;-0.428;2023-01-16T05:48:30;3.50;99.90
20744;DHT22;56303;52.160;-0.428;2023-01-16T05:51:03;3.60;99.90
20744;DHT22;56303;52.160;-0.428;2023-01-16T05:53:30;3.80;99.90
20744;DHT22;56303;52.160;-0.428;2023-01-16T05:55:58;3.90;99.90
20744;DHT22;56303;52.160;-0.428;2023-01-16T05:58:25;3.90;99.90
20744;DHT22;56303;52.160;-0.428;2023-01-16T06:00:52;3.90;99.90
20744;DHT22;56303;52.160;-0.428;2023-01-16T06:03:19;3.60;99.90
20744;DHT22;56303;52.160;-0.428;2023-01-16T06:05:47;3.50;99.90
20744;DHT22;56303;52.160;-0.428;2023-01-16T06:08:14;3.50;99.90
20744;DHT22;56303;52.160;-0.428;2023-01-16T06:10:41;3.40;99.90
20744;DHT22;56303;52.160;-0.428;2023-01-16T06:13:08;3.70;99.90
20744;DHT22;56303;52.160;-0.428;2023-01-16T06:15:35;4.40;99.90
20744;DHT22;56303;52.160;-0.428;2023-01-16T06:18:02;3.50;99.90
20744;DHT22;56303;52.160;-0.428;2023-01-16T06:20:29;3.50;99.90
20744;DHT22;56303;52.160;-0.428;2023-01-16T06:22:56;4.70;99.90
20744;DHT22;56303;52.160;-0.428;2023-01-16T06:25:23;3.80;99.90
20744;DHT22;56303;52.160;-0.428;2023-01-16T06:27:50;1.60;99.90
20744;DHT22;56303;52.160;-0.428;2023-01-16T06:30:18;3.50;99.90
20744;DHT22;56303;52.160;-0.428;2023-01-16T06:32:48;3.30;99.90
20744;DHT22;56303;52.160;-0.428;2023-01-16T06:35:17;3.50;99.90
20744;DHT22;56303;52.160;-0.428;2023-01-16T06:37:44;3.20;99.90
20744;DHT22;56303;52.160;-0.428;2023-01-16T06:40:11;3.10;99.90
20744;DHT22;56303;52.160;-0.428;2023-01-16T06:42:38;3.00;99.90
20744;DHT22;56303;52.160;-0.428;2023-01-16T06:45:06;3.10;99.90
20744;DHT22;56303;52.160;-0.428;2023-01-16T06:47:33;3.20;99.90
20744;DHT22;56303;52.160;-0.428;2023-01-16T06:50:00;3.20;99.90
20744;DHT22;56303;52.160;-0.428;2023-01-16T06:52:26;3.50;99.90
20744;DHT22;56303;52.160;-0.428;2023-01-16T06:54:53;4.30;99.90
20744;DHT22;56303;52.160;-0.428;2023-01-16T06:57:21;3.30;99.90
20744;DHT22;56303;52.160;-0.428;2023-01-16T06:59:47;3.90;99.90
20744;DHT22;56303;52.160;-0.428;2023-01-16T07:02:16;3.00;99.90
20744;DHT22;56303;52.160;-0.428;2023-01-16T07:04:43;3.70;99.90
20744;DHT22;56303;52.160;-0.428;2023-01-16T07:07:11;3.40;99.90
20744;DHT22;56303;52.160;-0.428;2023-01-16T07:09:38;3.50;99.90
20744;DHT22;56303;52.160;-0.428;2023-01-16T07:12:04;3.50;99.90
20744;DHT22;56303;52.160;-0.428;2023-01-16T07:14:31;3.50;99.90
20744;DHT22;56303;52.160;-0.428;2023-01-16T07:17:19;3.70;99.90
20744;DHT22;56303;52.160;-0.428;2023-01-16T07:20:07;3.60;99.90
20744;DHT22;56303;52.160;-0.428;2023-01-16T07:22:56;3.60;99.90
20744;DHT22;56303;52.160;-0.428;2023-01-16T07:25:30;3.60;99.90
20744;DHT22;56303;52.160;-0.428;2023-01-16T07:27:58;3.50;99.90
20744;DHT22;56303;52.160;-0.428;2023-01-16T07:30:25;3.30;99.90
20744;DHT22;56303;52.160;-0.428;2023-01-16T07:32:52;3.40;99.90
20744;DHT22;56303;52.160;-0.428;2023-01-16T07:35:18;3.30;99.90
20744;DHT22;56303;52.160;-0.428;2023-01-16T07:37:45;3.50;99.90
20744;DHT22;56303;52.160;-0.428;2023-01-16T07:40:12;3.60;99.90
20744;DHT22;56303;52.160;-0.428;2023-01-16T07:42:39;3.70;99.90
20744;DHT22;56303;52.160;-0.428;2023-01-16T07:45:07;3.60;99.90
20744;DHT22;56303;52.160;-0.428;2023-01-16T07:47:34;4.00;99.90
20744;DHT22;56303;52.160;-0.428;2023-01-16T07:50:01;4.00;99.90
20744;DHT22;56303;52.160;-0.428;2023-01-16T07:52:28;3.60;99.90
20744;DHT22;56303;52.160;-0.428;2023-01-16T07:54:55;3.60;99.90
20744;DHT22;56303;52.160;-0.428;2023-01-16T07:57:22;3.60;99.90
20744;DHT22;56303;52.160;-0.428;2023-01-16T07:59:51;3.90;99.90
20744;DHT22;56303;52.160;-0.428;2023-01-16T08:02:19;3.60;99.90
20744;DHT22;56303;52.160;-0.428;2023-01-16T08:04:46;3.60;99.90
20744;DHT22;56303;52.160;-0.428;2023-01-16T08:07:13;3.70;99.90
20744;DHT22;56303;52.160;-0.428;2023-01-16T08:09:40;3.90;99.90
20744;DHT22;56303;52.160;-0.428;2023-01-16T08:12:07;4.20;99.90
20744;DHT22;56303;52.160;-0.428;2023-01-16T08:14:34;4.70;99.90
20744;DHT22;56303;52.160;-0.428;2023-01-16T08:17:00;4.20;99.90
20744;DHT22;56303;52.160;-0.428;2023-01-16T08:19:27;4.70;99.90
20744;DHT22;56303;52.160;-0.428;2023-01-16T08:21:54;4.40;99.90
20744;DHT22;56303;52.160;-0.428;2023-01-16T08:24:21;4.30;99.90
20744;DHT22;56303;52.160;-0.428;2023-01-16T08:26:50;4.10;99.90
20744;DHT22;56303;52.160;-0.428;2023-01-16T08:29:17;4.10;99.90
20744;DHT22;56303;52.160;-0.428;2023-01-16T08:31:43;4.00;99.90
20744;DHT22;56303;52.160;-0.428;2023-01-16T08:34:11;4.10;99.90
20744;DHT22;56303;52.160;-0.428;2023-01-16T08:36:41;4.40;99.90
20744;DHT22;56303;52.160;-0.428;2023-01-16T08:39:09;4.60;99.90
20744;DHT22;56303;52.160;-0.428;2023-01-16T08:41:37;4.50;99.90
20744;DHT22;56303;52.160;-0.428;2023-01-16T08:44:23;4.70;99.90
20744;DHT22;56303;52.160;-0.428;2023-01-16T08:47:19;2.80;99.90
20744;DHT22;56303;52.160;-0.428;2023-01-16T08:50:12;4.70;99.90
20744;DHT22;56303;52.160;-0.428;2023-01-16T08:52:58;4.60;99.90
20744;DHT22;56303;52.160;-0.428;2023-01-16T08:55:25;4.70;99.90
20744;DHT22;56303;52.160;-0.428;2023-01-16T08:57:53;4.80;99.90
20744;DHT22;56303;52.160;-0.428;2023-01-16T09:00:20;4.90;99.90
20744;DHT22;56303;52.160;-0.428;2023-01-16T09:02:47;4.80;99.90
20744;DHT22;56303;52.160;-0.428;2023-01-16T09:05:14;4.90;99.90
20744;DHT22;56303;52.160;-0.428;2023-01-16T09:07:41;4.90;99.90
20744;DHT22;56303;52.160;-0.428;2023-01-16T09:10:10;4.80;99.90
20744;DHT22;56303;52.160;-0.428;2023-01-16T09:12:38;3.20;99.90
20744;DHT22;56303;52.160;-0.428;2023-01-16T09:15:24;4.80;99.90
20744;DHT22;56303;52.160;-0.428;2023-01-16T09:17:51;4.80;99.90
20744;DHT22;56303;52.160;-0.428;2023-01-16T09:20:18;4.90;99.90
20744;DHT22;56303;52.160;-0.428;2023-01-16T09:22:45;4.90;99.90
20744;DHT22;56303;52.160;-0.428;2023-01-16T09:25:12;4.50;99.90
20744;DHT22;56303;52.160;-0.428;2023-01-16T09:27:43;4.60;99.90
20744;DHT22;56303;52.160;-0.428;2023-01-16T09:30:13;4.40;99.90
20744;DHT22;56303;52.160;-0.428;2023-01-16T09:32:40;4.50;99.90
20744;DHT22;56303;52.160;-0.428;2023-01-16T09:35:07;4.80;99.90
20744;DHT22;56303;52.160;-0.428;2023-01-16T09:37:34;4.80;99.90
20744;DHT22;56303;52.160;-0.428;2023-01-16T09:40:00;4.80;99.90
20744;DHT22;56303;52.160;-0.428;2023-01-16T09:45:38;5.20;99.90
20744;DHT22;56303;52.160;-0.428;2023-01-16T09:48:15;4.90;99.90
20744;DHT22;56303;52.160;-0.428;2023-01-16T09:50:50;4.90;99.90
20744;DHT22;56303;52.160;-0.428;2023-01-16T09:53:44;5.00;99.90
20744;DHT22;56303;52.160;-0.428;2023-01-16T09:56:36;4.80;99.90
20744;DHT22;56303;52.160;-0.428;2023-01-16T10:04:39;4.90;99.90
20744;DHT22;56303;52.160;-0.428;2023-01-16T10:12:40;4.60;99.90
20744;DHT22;56303;52.160;-0.428;2023-01-16T10:15:37;4.90;99.90
20744;DHT22;56303;52.160;-0.428;2023-01-16T10:18:30;5.20;99.90
20744;DHT22;56303;52.160;-0.428;2023-01-16T10:21:27;5.20;99.90
20744;DHT22;56303;52.160;-0.428;2023-01-16T10:24:05;5.10;99.90
20744;DHT22;56303;52.160;-0.428;2023-01-16T10:29:25;4.80;99.90
20744;DHT22;56303;52.160;-0.428;2023-01-16T10:32:24;4.60;99.90
20744;DHT22;56303;52.160;-0.428;2023-01-16T10:37:30;4.90;99.90
20744;DHT22;56303;52.160;-0.428;2023-01-16T10:39:59;6.40;99.90
20744;DHT22;56303;52.160;-0.428;2023-01-16T10:42:31;5.00;99.90
20744;DHT22;56303;52.160;-0.428;2023-01-16T10:45:36;5.00;99.90
20744;DHT22;56303;52.160;-0.428;2023-01-16T10:48:24;5.10;99.90
20744;DHT22;56303;52.160;-0.428;2023-01-16T10:51:11;5.30;99.90
20744;DHT22;56303;52.160;-0.428;2023-01-16T10:53:39;5.20;99.90
20744;DHT22;56303;52.160;-0.428;2023-01-16T10:56:05;5.00;99.90
20744;DHT22;56303;52.160;-0.428;2023-01-16T10:58:35;4.90;99.90
20744;DHT22;56303;52.160;-0.428;2023-01-16T11:01:06;4.90;99.90
20744;DHT22;56303;52.160;-0.428;2023-01-16T11:06:18;5.50;99.90
20744;DHT22;56303;52.160;-0.428;2023-01-16T11:08:49;5.50;99.90
20744;DHT22;56303;52.160;-0.428;2023-01-16T11:11:18;5.10;99.90
20744;DHT22;56303;52.160;-0.428;2023-01-16T11:14:21;5.20;99.90
20744;DHT22;56303;52.160;-0.428;2023-01-16T11:20:27;5.40;99.90
20744;DHT22;56303;52.160;-0.428;2023-01-16T11:22:59;5.60;99.90
20744;DHT22;56303;52.160;-0.428;2023-01-16T11:25:28;5.60;99.90
20744;DHT22;56303;52.160;-0.428;2023-01-16T11:27:58;4.90;99.90
20744;DHT22;56303;52.160;-0.428;2023-01-16T11:30:32;5.70;99.90
20744;DHT22;56303;52.160;-0.428;2023-01-16T11:33:01;5.80;99.90
20744;DHT22;56303;52.160;-0.428;2023-01-16T11:35:35;5.70;99.90
20744;DHT22;56303;52.160;-0.428;2023-01-16T11:38:04;5.90;99.90
20744;DHT22;56303;52.160;-0.428;2023-01-16T11:40:37;6.10;99.90
20744;DHT22;56303;52.160;-0.428;2023-01-16T11:43:15;6.20;99.90
20744;DHT22;56303;52.160;-0.428;2023-01-16T11:46:05;5.90;99.90
20744;DHT22;56303;52.160;-0.428;2023-01-16T11:48:41;5.80;99.90
20744;DHT22;56303;52.160;-0.428;2023-01-16T11:51:19;6.00;99.90
20744;DHT22;56303;52.160;-0.428;2023-01-16T11:53:50;6.10;99.90
20744;DHT22;56303;52.160;-0.428;2023-01-16T11:56:24;6.00;99.90
20744;DHT22;56303;52.160;-0.428;2023-01-16T12:11:08;5.50;99.90
20744;DHT22;56303;52.160;-0.428;2023-01-16T12:20:29;5.40;99.90
20744;DHT22;56303;52.160;-0.428;2023-01-16T12:26:11;5.40;99.90
20744;DHT22;56303;52.160;-0.428;2023-01-16T12:32:04;5.70;99.90
20744;DHT22;56303;52.160;-0.428;2023-01-16T12:37:32;5.70;99.90
20744;DHT22;56303;52.160;-0.428;2023-01-16T12:43:03;5.50;99.90
20744;DHT22;56303;52.160;-0.428;2023-01-16T12:45:55;5.50;99.90
20744;DHT22;56303;52.160;-0.428;2023-01-16T12:48:34;5.30;99.90
20744;DHT22;56303;52.160;-0.428;2023-01-16T12:51:45;5.20;99.90
20744;DHT22;56303;52.160;-0.428;2023-01-16T13:00:10;6.10;99.90
20744;DHT22;56303;52.160;-0.428;2023-01-16T13:05:25;6.90;99.90
20744;DHT22;56303;52.160;-0.428;2023-01-16T13:07:57;6.30;99.90
20744;DHT22;56303;52.160;-0.428;2023-01-16T13:10:38;5.70;99.90
20744;DHT22;56303;52.160;-0.428;2023-01-16T13:13:36;5.50;99.90
20744;DHT22;56303;52.160;-0.428;2023-01-16T13:16:19;5.40;99.90
20744;DHT22;56303;52.160;-0.428;2023-01-16T13:18:55;5.60;99.90
20744;DHT22;56303;52.160;-0.428;2023-01-16T13:21:33;5.50;99.90
20744;DHT22;56303;52.160;-0.428;2023-01-16T13:24:11;5.70;99.90
20744;DHT22;56303;52.160;-0.428;2023-01-16T13:26:39;5.40;99.90
20744;DHT22;56303;52.160;-0.428;2023-01-16T13:29:41;4.90;99.90
20744;DHT22;56303;52.160;-0.428;2023-01-16T13:32:29;5.40;99.90
20744;DHT22;56303;52.160;-0.428;2023-01-16T13:35:06;4.90;99.90
20744;DHT22;56303;52.160;-0.428;2023-01-16T13:44:06;4.70;99.90
20744;DHT22;56303;52.160;-0.428;2023-01-16T13:46:52;5.00;99.90
20744;DHT22;56303;52.160;-0.428;2023-01-16T13:49:22;5.70;99.90
20744;DHT22;56303;52.160;-0.428;2023-01-16T13:51:52;5.70;99.90
20744;DHT22;56303;52.160;-0.428;2023-01-16T13:54:42;5.40;99.90
20744;DHT22;56303;52.160;-0.428;2023-01-16T13:57:19;4.90;99.90
20744;DHT22;56303;52.160;-0.428;2023-01-16T14:10:44;4.20;99.90
20744;DHT22;56303;52.160;-0.428;2023-01-16T14:13:31;4.30;99.90
20744;DHT22;56303;52.160;-0.428;2023-01-16T14:16:00;4.00;99.90
20744;DHT22;56303;52.160;-0.428;2023-01-16T14:21:24;4.10;99.90
20744;DHT22;56303;52.160;-0.428;2023-01-16T14:23:57;3.90;99.90
20744;DHT22;56303;52.160;-0.428;2023-01-16T14:26:51;3.50;99.90
20744;DHT22;56303;52.160;-0.428;2023-01-16T14:32:34;3.60;99.90
20744;DHT22;56303;52.160;-0.428;2023-01-16T14:35:20;3.80;99.90
20744;DHT22;56303;52.160;-0.428;2023-01-16T14:38:08;4.20;99.90
20744;DHT22;56303;52.160;-0.428;2023-01-16T14:40:38;4.30;99.90
20744;DHT22;56303;52.160;-0.428;2023-01-16T14:43:30;4.10;99.90
20744;DHT22;56303;52.160;-0.428;2023-01-16T14:49:40;4.40;99.90
20744;DHT22;56303;52.160;-0.428;2023-01-16T14:55:45;4.30;99.90
20744;DHT22;56303;52.160;-0.428;2023-01-16T14:58:45;5.00;99.90
20744;DHT22;56303;52.160;-0.428;2023-01-16T15:05:02;4.70;99.90
20744;DHT22;56303;52.160;-0.428;2023-01-16T15:12:44;5.00;99.90
20744;DHT22;56303;52.160;-0.428;2023-01-16T15:17:56;3.70;99.90
20744;DHT22;56303;52.160;-0.428;2023-01-16T15:20:44;4.00;99.90
20744;DHT22;56303;52.160;-0.428;2023-01-16T15:23:36;4.00;99.90
20744;DHT22;56303;52.160;-0.428;2023-01-16T15:26:47;3.80;99.90
20744;DHT22;56303;52.160;-0.428;2023-01-16T15:31:59;3.80;99.90
20744;DHT22;56303;52.160;-0.428;2023-01-16T15:34:30;3.70;99.90
20744;DHT22;56303;52.160;-0.428;2023-01-16T15:36:58;3.50;99.90
20744;DHT22;56303;52.160;-0.428;2023-01-16T15:45:08;3.50;99.90
20744;DHT22;56303;52.160;-0.428;2023-01-16T15:53:24;4.30;99.90
20744;DHT22;56303;52.160;-0.428;2023-01-16T15:56:04;4.20;99.90
20744;DHT22;56303;52.160;-0.428;2023-01-16T15:58:35;3.60;99.90
20744;DHT22;56303;52.160;-0.428;2023-01-16T16:01:30;3.50;99.90
20744;DHT22;56303;52.160;-0.428;2023-01-16T16:03:58;3.50;99.90
20744;DHT22;56303;52.160;-0.428;2023-01-16T16:06:28;3.70;99.90
20744;DHT22;56303;52.160;-0.428;2023-01-16T16:08:57;3.70;99.90
20744;DHT22;56303;52.160;-0.428;2023-01-16T16:11:30;3.70;99.90
20744;DHT22;56303;52.160;-0.428;2023-01-16T16:14:28;3.40;99.90
20744;DHT22;56303;52.160;-0.428;2023-01-16T16:17:31;3.50;99.90
20744;DHT22;56303;52.160;-0.428;2023-01-16T16:20:36;3.30;99.90
20744;DHT22;56303;52.160;-0.428;2023-01-16T16:23:22;3.40;99.90
20744;DHT22;56303;52.160;-0.428;2023-01-16T16:26:13;4.60;99.90
20744;DHT22;56303;52.160;-0.428;2023-01-16T16:28:50;3.10;99.90
20744;DHT22;56303;52.160;-0.428;2023-01-16T16:31:32;2.80;99.90
20744;DHT22;56303;52.160;-0.428;2023-01-16T16:34:06;3.00;99.90
20744;DHT22;56303;52.160;-0.428;2023-01-16T16:36:44;3.10;99.90
20744;DHT22;56303;52.160;-0.428;2023-01-16T16:41:57;3.10;99.90
20744;DHT22;56303;52.160;-0.428;2023-01-16T16:47:40;3.30;99.90
20744;DHT22;56303;52.160;-0.428;2023-01-16T16:53:09;3.10;99.90
20744;DHT22;56303;52.160;-0.428;2023-01-16T16:55:39;2.00;99.90
20744;DHT22;56303;52.160;-0.428;2023-01-16T16:58:17;3.90;99.90
20744;DHT22;56303;52.160;-0.428;2023-01-16T17:00:45;2.40;99.90
20744;DHT22;56303;52.160;-0.428;2023-01-16T17:03:18;2.60;99.90
20744;DHT22;56303;52.160;-0.428;2023-01-16T17:05:46;2.40;99.90
20744;DHT22;56303;52.160;-0.428;2023-01-16T17:08:23;2.80;99.90
20744;DHT22;56303;52.160;-0.428;2023-01-16T17:10:51;2.30;99.90
20744;DHT22;56303;52.160;-0.428;2023-01-16T17:13:19;2.90;99.90
20744;DHT22;56303;52.160;-0.428;2023-01-16T17:15:48;2.00;99.90
20744;DHT22;56303;52.160;-0.428;2023-01-16T17:18:18;1.80;99.90
20744;DHT22;56303;52.160;-0.428;2023-01-16T17:20:45;1.70;99.90
20744;DHT22;56303;52.160;-0.428;2023-01-16T17:23:16;2.00;99.90
20744;DHT22;56303;52.160;-0.428;2023-01-16T17:25:43;2.00;99.90
20744;DHT22;56303;52.160;-0.428;2023-01-16T17:28:13;1.90;99.90
20744;DHT22;56303;52.160;-0.428;2023-01-16T17:30:41;1.70;99.90
20744;DHT22;56303;52.160;-0.428;2023-01-16T17:35:37;1.80;99.90
20744;DHT22;56303;52.160;-0.428;2023-01-16T17:38:25;1.90;99.90
20744;DHT22;56303;52.160;-0.428;2023-01-16T17:40:52;1.60;99.90
20744;DHT22;56303;52.160;-0.428;2023-01-16T17:43:20;1.20;99.90
20744;DHT22;56303;52.160;-0.428;2023-01-16T17:46:10;1.50;99.90
20744;DHT22;56303;52.160;-0.428;2023-01-16T17:48:39;1.20;99.90
20744;DHT22;56303;52.160;-0.428;2023-01-16T17:51:06;1.30;99.90
20744;DHT22;56303;52.160;-0.428;2023-01-16T17:53:33;1.20;99.90
20744;DHT22;56303;52.160;-0.428;2023-01-16T17:56:04;2.40;99.90
20744;DHT22;56303;52.160;-0.428;2023-01-16T17:58:36;1.30;99.90
20744;DHT22;56303;52.160;-0.428;2023-01-16T18:01:11;1.10;99.90
20744;DHT22;56303;52.160;-0.428;2023-01-16T18:03:39;1.40;99.90
20744;DHT22;56303;52.160;-0.428;2023-01-16T18:06:07;2.50;99.90
20744;DHT22;56303;52.160;-0.428;2023-01-16T18:08:35;1.60;99.90
20744;DHT22;56303;52.160;-0.428;2023-01-16T18:11:03;1.80;99.90
20744;DHT22;56303;52.160;-0.428;2023-01-16T18:13:51;1.70;99.90
20744;DHT22;56303;52.160;-0.428;2023-01-16T18:16:37;1.80;99.90
20744;DHT22;56303;52.160;-0.428;2023-01-16T18:19:22;1.80;99.90
20744;DHT22;56303;52.160;-0.428;2023-01-16T18:21:49;2.00;99.90
20744;DHT22;56303;52.160;-0.428;2023-01-16T18:24:36;1.90;99.90
20744;DHT22;56303;52.160;-0.428;2023-01-16T18:27:06;2.00;99.90
20744;DHT22;56303;52.160;-0.428;2023-01-16T18:29:33;2.10;99.90
20744;DHT22;56303;52.160;-0.428;2023-01-16T18:32:01;2.10;99.90
20744;DHT22;56303;52.160;-0.428;2023-01-16T18:37:40;2.00;99.90
20744;DHT22;56303;52.160;-0.428;2023-01-16T18:40:14;1.60;99.90
20744;DHT22;56303;52.160;-0.428;2023-01-16T18:43:00;1.40;99.90
20744;DHT22;56303;52.160;-0.428;2023-01-16T18:45:46;1.20;99.90
20744;DHT22;56303;52.160;-0.428;2023-01-16T18:48:32;1.30;99.90
20744;DHT22;56303;52.160;-0.428;2023-01-16T18:51:18;0.90;99.90
20744;DHT22;56303;52.160;-0.428;2023-01-16T18:54:17;1.10;99.90
20744;DHT22;56303;52.160;-0.428;2023-01-16T18:57:10;1.10;99.90
20744;DHT22;56303;52.160;-0.428;2023-01-16T18:59:55;0.80;99.90
20744;DHT22;56303;52.160;-0.428;2023-01-16T19:02:43;0.70;99.90
20744;DHT22;56303;52.160;-0.428;2023-01-16T19:05:10;0.70;99.90
20744;DHT22;56303;52.160;-0.428;2023-01-16T19:07:41;0.80;99.90
20744;DHT22;56303;52.160;-0.428;2023-01-16T19:10:17;1.20;99.90
20744;DHT22;56303;52.160;-0.428;2023-01-16T19:12:47;0.90;99.90